createdAt,value
2023-03-31T15:49:17.144Z,13.10
2023-03-31T15:51:47.751Z,14.60
2023-03-31T15:54:35.370Z,14.30
2023-03-31T15:57:04.935Z,14.00
2023-03-31T16:02:46.681Z,13.90
2023-03-31T16:05:51.399Z,13.80
2023-03-31T16:08:25.784Z,13.80
2023-03-31T16:11:01.901Z,13.70
2023-03-31T16:13:32.064Z,13.70
2023-03-31T16:16:00.432Z,13.70
2023-03-31T16:18:36.244Z,13.70
2023-03-31T16:21:06.159Z,13.70
2023-03-31T16:23:38.832Z,13.70
2023-03-31T16:26:07.337Z,13.70
2023-03-31T16:28:36.525Z,13.60
2023-03-31T16:31:05.449Z,13.60
2023-03-31T16:33:53.651Z,13.50
2023-03-31T16:36:20.892Z,13.50
2023-03-31T16:38:48.160Z,13.50
2023-03-31T16:41:16.273Z,13.60
2023-03-31T16:43:45.934Z,13.60
2023-03-31T16:46:13.318Z,13.60
2023-03-31T16:48:41.829Z,13.70
2023-03-31T16:51:09.176Z,13.70
2023-03-31T16:53:37.844Z,13.80
2023-03-31T16:56:08.436Z,13.80
2023-03-31T16:58:36.614Z,13.70
2023-03-31T17:01:06.471Z,13.70
2023-03-31T17:03:35.263Z,13.80
2023-03-31T17:06:07.378Z,13.70
2023-03-31T17:08:34.629Z,13.80
2023-03-31T17:11:05.723Z,13.60
2023-03-31T17:13:36.571Z,13.50
2023-03-31T17:22:06.878Z,13.50
2023-03-31T17:24:34.128Z,13.40
2023-03-31T17:27:01.371Z,13.30
2023-03-31T17:29:28.877Z,13.30
2023-03-31T17:31:56.087Z,13.30
2023-03-31T17:34:23.183Z,13.20
2023-03-31T17:36:51.692Z,13.20
2023-03-31T17:39:18.753Z,13.20
2023-03-31T17:41:46.055Z,13.20
2023-03-31T17:44:13.155Z,13.10
2023-03-31T17:46:40.244Z,13.00
2023-03-31T17:49:08.760Z,13.00
2023-03-31T17:51:36.706Z,13.10
2023-03-31T17:54:04.233Z,13.10
2023-03-31T17:56:31.384Z,13.10
2023-03-31T17:58:58.555Z,13.00
2023-03-31T18:01:26.034Z,13.10
2023-03-31T18:03:56.197Z,13.00
2023-03-31T18:06:23.591Z,13.00
2023-03-31T18:08:51.434Z,13.10
2023-03-31T18:11:18.599Z,12.90
2023-03-31T18:13:46.480Z,12.90
2023-03-31T18:16:14.234Z,12.90
2023-03-31T18:18:42.745Z,12.90
2023-03-31T18:21:12.318Z,12.80
2023-03-31T18:23:41.774Z,12.80
2023-03-31T18:26:12.246Z,12.80
2023-03-31T18:28:42.785Z,12.60
2023-03-31T18:31:11.017Z,12.60
2023-03-31T18:33:38.585Z,12.70
2023-03-31T18:36:07.795Z,12.80
2023-03-31T18:38:37.283Z,12.80
2023-03-31T18:41:04.876Z,12.90
2023-03-31T18:43:33.355Z,12.90
2023-03-31T18:46:01.903Z,13.00
2023-03-31T18:48:29.556Z,12.90
2023-03-31T18:50:56.845Z,12.90
2023-03-31T18:53:24.621Z,12.80
2023-03-31T18:55:57.252Z,12.80
2023-03-31T18:58:25.681Z,12.70
2023-03-31T19:00:53.223Z,12.70
2023-03-31T19:03:20.868Z,12.60
2023-03-31T19:05:48.602Z,12.60
2023-03-31T19:08:16.521Z,12.70
2023-03-31T19:10:44.133Z,12.70
2023-03-31T19:13:16.316Z,12.70
2023-03-31T19:15:43.609Z,12.70
2023-03-31T19:18:15.412Z,12.60
2023-03-31T19:20:42.566Z,12.50
2023-03-31T19:23:09.914Z,12.60
2023-03-31T19:25:37.218Z,12.60
2023-03-31T19:28:05.084Z,12.70
2023-03-31T19:30:32.284Z,12.70
2023-03-31T19:33:03.098Z,12.80
2023-03-31T19:36:17.317Z,12.80
2023-03-31T19:38:44.675Z,12.70
2023-03-31T19:41:11.721Z,12.70
2023-03-31T19:43:38.972Z,12.70
2023-03-31T19:46:06.010Z,12.80
2023-03-31T19:48:34.308Z,12.80
2023-03-31T19:51:09.070Z,12.70
2023-03-31T19:53:38.627Z,12.70
2023-03-31T19:56:08.540Z,12.70
2023-03-31T19:58:36.822Z,12.70
2023-03-31T20:01:10.110Z,12.70
2023-03-31T20:03:38.051Z,12.70
2023-03-31T20:06:15.465Z,12.70
2023-03-31T20:08:43.998Z,12.60
2023-03-31T20:11:13.804Z,12.50
2023-03-31T20:13:42.855Z,12.20
2023-03-31T20:16:16.243Z,12.20
2023-03-31T20:18:49.438Z,12.20
2023-03-31T20:21:20.736Z,12.20
2023-03-31T20:23:48.249Z,12.20
2023-03-31T20:26:19.826Z,12.10
2023-03-31T20:28:47.778Z,12.10
2023-03-31T20:31:21.152Z,11.90
2023-03-31T20:33:49.336Z,11.80
2023-03-31T20:36:22.647Z,11.70
2023-03-31T20:38:52.489Z,11.80
2023-03-31T20:41:21.480Z,11.70
2023-03-31T20:43:48.832Z,11.60
2023-03-31T20:46:16.247Z,11.60
2023-03-31T20:48:49.738Z,11.60
2023-03-31T20:51:19.446Z,11.50
2023-03-31T20:53:49.258Z,11.50
2023-03-31T20:56:28.054Z,11.50
2023-03-31T20:58:59.188Z,11.50
2023-03-31T21:01:28.554Z,11.50
2023-03-31T21:04:01.236Z,11.50
2023-03-31T21:06:31.418Z,11.60
2023-03-31T21:08:59.189Z,11.50
2023-03-31T21:11:26.805Z,11.40
2023-03-31T21:13:54.210Z,11.40
2023-03-31T21:16:22.737Z,11.40
2023-03-31T21:18:52.035Z,11.50
2023-03-31T21:21:19.763Z,11.50
2023-03-31T21:23:47.392Z,11.50
2023-03-31T21:26:16.052Z,11.50
2023-03-31T21:28:45.144Z,11.50
2023-03-31T21:31:15.213Z,11.40
2023-03-31T21:33:43.844Z,11.30
2023-03-31T21:36:14.853Z,11.20
2023-03-31T21:38:42.800Z,11.20
2023-03-31T21:41:19.667Z,11.10
2023-03-31T21:43:47.439Z,11.00
2023-03-31T21:46:21.061Z,10.90
2023-03-31T21:48:49.624Z,10.70
2023-03-31T21:51:19.026Z,10.60
2023-03-31T21:53:46.463Z,10.60
2023-03-31T21:56:13.941Z,10.50
2023-03-31T21:58:41.313Z,10.40
2023-03-31T22:01:09.060Z,10.20
2023-03-31T22:03:38.730Z,10.20
2023-03-31T22:06:09.701Z,10.20
2023-03-31T22:08:38.397Z,10.30
2023-03-31T22:11:07.706Z,10.30
2023-03-31T22:14:13.957Z,10.20
2023-03-31T22:16:41.918Z,10.10
2023-03-31T22:19:13.065Z,10.20
2023-03-31T22:21:41.191Z,10.20
2023-03-31T22:24:12.481Z,10.20
2023-03-31T22:26:39.784Z,10.10
2023-03-31T22:29:06.880Z,9.80
2023-03-31T22:31:34.027Z,9.80
2023-03-31T22:34:01.264Z,9.80
2023-03-31T22:36:28.715Z,9.80
2023-03-31T22:38:55.849Z,9.80
2023-03-31T22:41:23.477Z,9.80
2023-03-31T22:43:51.259Z,10.00
2023-03-31T22:46:18.426Z,10.10
2023-03-31T22:48:49.754Z,10.20
2023-03-31T22:51:17.618Z,10.30
2023-03-31T22:53:50.268Z,10.20
2023-03-31T22:56:17.656Z,10.00
2023-03-31T22:58:45.007Z,10.00
2023-03-31T23:01:18.028Z,10.10
2023-03-31T23:03:46.572Z,10.00
2023-03-31T23:06:14.954Z,9.90
2023-03-31T23:08:42.417Z,9.80
2023-03-31T23:11:12.753Z,9.70
2023-03-31T23:13:40.042Z,9.50
2023-03-31T23:16:18.726Z,9.50
2023-03-31T23:18:47.825Z,9.50
2023-03-31T23:21:19.611Z,9.60
2023-03-31T23:23:46.968Z,9.50
2023-03-31T23:26:16.109Z,9.30
2023-03-31T23:28:44.026Z,9.30
2023-03-31T23:31:11.181Z,9.30
2023-03-31T23:33:38.534Z,9.30
2023-03-31T23:36:07.821Z,9.40
2023-03-31T23:38:35.234Z,9.50
2023-03-31T23:41:05.711Z,9.60
2023-03-31T23:44:13.562Z,9.50
2023-03-31T23:46:42.356Z,9.50
2023-03-31T23:49:09.752Z,9.50
2023-03-31T23:51:36.905Z,9.60
2023-03-31T23:54:04.051Z,9.60
2023-03-31T23:56:31.312Z,9.60
2023-03-31T23:58:58.505Z,9.70
